sensor_id;sensor_type;location;lat;lon;timestamp;P1;durP1;ratioP1;P2;durP2;ratioP2
77520;SDS011;66633;47.628;19.158;2024-03-02T00:00:56;24.97;;;14.00;;
77520;SDS011;66633;47.628;19.158;2024-03-02T00:03:22;27.90;;;15.98;;
77520;SDS011;66633;47.628;19.158;2024-03-02T00:05:50;27.98;;;16.20;;
77520;SDS011;66633;47.628;19.158;2024-03-02T00:08:23;31.35;;;17.45;;
77520;SDS011;66633;47.628;19.158;2024-03-02T00:10:51;26.42;;;15.40;;
77520;SDS011;66633;47.628;19.158;2024-03-02T00:13:19;23.77;;;14.30;;
77520;SDS011;66633;47.628;19.158;2024-03-02T00:15:50;25.70;;;14.10;;
77520;SDS011;66633;47.628;19.158;2024-03-02T00:18:18;23.48;;;13.18;;
77520;SDS011;66633;47.628;19.158;2024-03-02T00:20:43;20.55;;;11.68;;
77520;SDS011;66633;47.628;19.158;2024-03-02T00:23:09;23.30;;;12.60;;
77520;SDS011;66633;47.628;19.158;2024-03-02T00:25:43;22.50;;;12.70;;
77520;SDS011;66633;47.628;19.158;2024-03-02T00:28:54;24.42;;;13.60;;
77520;SDS011;66633;47.628;19.158;2024-03-02T00:33:44;32.08;;;17.50;;
77520;SDS011;66633;47.628;19.158;2024-03-02T00:36:10;34.45;;;18.33;;
77520;SDS011;66633;47.628;19.158;2024-03-02T00:38:40;31.98;;;18.08;;
77520;SDS011;66633;47.628;19.158;2024-03-02T00:41:07;32.15;;;18.10;;
77520;SDS011;66633;47.628;19.158;2024-03-02T00:46:19;34.95;;;18.42;;
77520;SDS011;66633;47.628;19.158;2024-03-02T00:48:52;26.02;;;15.18;;
77520;SDS011;66633;47.628;19.158;2024-03-02T00:51:17;28.10;;;15.77;;
77520;SDS011;66633;47.628;19.158;2024-03-02T00:53:43;28.30;;;16.08;;
77520;SDS011;66633;47.628;19.158;2024-03-02T00:56:09;31.45;;;18.27;;
77520;SDS011;66633;47.628;19.158;2024-03-02T00:58:35;29.98;;;16.92;;
77520;SDS011;66633;47.628;19.158;2024-03-02T01:01:01;30.87;;;16.43;;
77520;SDS011;66633;47.628;19.158;2024-03-02T01:03:26;29.37;;;15.97;;
77520;SDS011;66633;47.628;19.158;2024-03-02T01:05:51;29.53;;;15.97;;
77520;SDS011;66633;47.628;19.158;2024-03-02T01:08:16;29.00;;;15.83;;
77520;SDS011;66633;47.628;19.158;2024-03-02T01:10:42;27.40;;;15.73;;
77520;SDS011;66633;47.628;19.158;2024-03-02T01:13:07;26.95;;;14.38;;
77520;SDS011;66633;47.628;19.158;2024-03-02T01:15:33;29.43;;;15.53;;
77520;SDS011;66633;47.628;19.158;2024-03-02T01:17:58;31.98;;;17.80;;
77520;SDS011;66633;47.628;19.158;2024-03-02T01:20:23;29.83;;;16.03;;
77520;SDS011;66633;47.628;19.158;2024-03-02T01:22:49;36.53;;;18.42;;
77520;SDS011;66633;47.628;19.158;2024-03-02T01:25:15;35.57;;;19.00;;
77520;SDS011;66633;47.628;19.158;2024-03-02T01:27:40;37.30;;;20.20;;
77520;SDS011;66633;47.628;19.158;2024-03-02T01:30:05;38.93;;;20.83;;
77520;SDS011;66633;47.628;19.158;2024-03-02T01:32:31;38.63;;;19.48;;
77520;SDS011;66633;47.628;19.158;2024-03-02T01:34:56;33.57;;;19.07;;
77520;SDS011;66633;47.628;19.158;2024-03-02T01:37:21;34.42;;;17.65;;
77520;SDS011;66633;47.628;19.158;2024-03-02T01:39:47;35.08;;;17.63;;
77520;SDS011;66633;47.628;19.158;2024-03-02T01:42:12;31.30;;;17.13;;
77520;SDS011;66633;47.628;19.158;2024-03-02T01:44:37;35.58;;;19.08;;
77520;SDS011;66633;47.628;19.158;2024-03-02T01:47:03;34.60;;;18.20;;
77520;SDS011;66633;47.628;19.158;2024-03-02T01:49:28;31.85;;;18.48;;
77520;SDS011;66633;47.628;19.158;2024-03-02T01:51:53;29.97;;;16.83;;
77520;SDS011;66633;47.628;19.158;2024-03-02T01:54:18;32.93;;;18.10;;
77520;SDS011;66633;47.628;19.158;2024-03-02T01:56:43;34.60;;;18.27;;
77520;SDS011;66633;47.628;19.158;2024-03-02T01:59:09;30.17;;;16.67;;
77520;SDS011;66633;47.628;19.158;2024-03-02T02:01:34;30.43;;;15.73;;
77520;SDS011;66633;47.628;19.158;2024-03-02T02:03:59;31.20;;;15.93;;
77520;SDS011;66633;47.628;19.158;2024-03-02T02:06:25;33.20;;;17.02;;
77520;SDS011;66633;47.628;19.158;2024-03-02T02:08:51;27.13;;;15.68;;
77520;SDS011;66633;47.628;19.158;2024-03-02T02:11:16;27.37;;;15.30;;
77520;SDS011;66633;47.628;19.158;2024-03-02T02:13:41;28.52;;;16.48;;
77520;SDS011;66633;47.628;19.158;2024-03-02T02:16:07;33.33;;;18.53;;
77520;SDS011;66633;47.628;19.158;2024-03-02T02:18:32;30.13;;;17.13;;
77520;SDS011;66633;47.628;19.158;2024-03-02T02:20:58;29.00;;;16.23;;
77520;SDS011;66633;47.628;19.158;2024-03-02T02:23:23;31.93;;;16.83;;
77520;SDS011;66633;47.628;19.158;2024-03-02T02:25:48;27.20;;;14.87;;
77520;SDS011;66633;47.628;19.158;2024-03-02T02:28:13;28.77;;;15.93;;
77520;SDS011;66633;47.628;19.158;2024-03-02T02:30:39;25.47;;;14.00;;
77520;SDS011;66633;47.628;19.158;2024-03-02T02:33:04;25.45;;;13.18;;
77520;SDS011;66633;47.628;19.158;2024-03-02T02:35:29;25.95;;;13.88;;
77520;SDS011;66633;47.628;19.158;2024-03-02T02:37:55;25.33;;;12.25;;
77520;SDS011;66633;47.628;19.158;2024-03-02T02:40:21;24.27;;;12.90;;
77520;SDS011;66633;47.628;19.158;2024-03-02T02:42:47;25.38;;;13.55;;
77520;SDS011;66633;47.628;19.158;2024-03-02T02:45:12;24.90;;;14.18;;
77520;SDS011;66633;47.628;19.158;2024-03-02T02:47:39;26.88;;;13.43;;
77520;SDS011;66633;47.628;19.158;2024-03-02T02:50:04;22.83;;;13.00;;
77520;SDS011;66633;47.628;19.158;2024-03-02T02:52:32;22.73;;;12.65;;
77520;SDS011;66633;47.628;19.158;2024-03-02T02:54:58;29.25;;;15.18;;
77520;SDS011;66633;47.628;19.158;2024-03-02T02:57:23;24.35;;;13.38;;
77520;SDS011;66633;47.628;19.158;2024-03-02T02:59:49;25.50;;;14.43;;
77520;SDS011;66633;47.628;19.158;2024-03-02T03:02:14;27.53;;;14.83;;
77520;SDS011;66633;47.628;19.158;2024-03-02T03:04:39;25.90;;;13.70;;
77520;SDS011;66633;47.628;19.158;2024-03-02T03:07:05;25.70;;;14.20;;
77520;SDS011;66633;47.628;19.158;2024-03-02T03:09:30;27.27;;;14.57;;
77520;SDS011;66633;47.628;19.158;2024-03-02T03:11:55;24.57;;;13.27;;
77520;SDS011;66633;47.628;19.158;2024-03-02T03:14:20;24.20;;;13.73;;
77520;SDS011;66633;47.628;19.158;2024-03-02T03:16:46;28.30;;;13.93;;
77520;SDS011;66633;47.628;19.158;2024-03-02T03:19:11;25.15;;;14.13;;
77520;SDS011;66633;47.628;19.158;2024-03-02T03:21:36;24.47;;;13.87;;
77520;SDS011;66633;47.628;19.158;2024-03-02T03:24:01;27.70;;;14.13;;
77520;SDS011;66633;47.628;19.158;2024-03-02T03:26:26;29.80;;;15.20;;
77520;SDS011;66633;47.628;19.158;2024-03-02T03:28:52;28.60;;;14.37;;
77520;SDS011;66633;47.628;19.158;2024-03-02T03:31:17;26.40;;;13.20;;
77520;SDS011;66633;47.628;19.158;2024-03-02T03:33:42;29.60;;;14.98;;
77520;SDS011;66633;47.628;19.158;2024-03-02T03:36:07;27.93;;;13.83;;
77520;SDS011;66633;47.628;19.158;2024-03-02T03:38:33;28.90;;;15.63;;
77520;SDS011;66633;47.628;19.158;2024-03-02T03:40:58;26.47;;;14.20;;
77520;SDS011;66633;47.628;19.158;2024-03-02T03:43:23;26.50;;;13.73;;
77520;SDS011;66633;47.628;19.158;2024-03-02T03:45:48;23.97;;;13.00;;
77520;SDS011;66633;47.628;19.158;2024-03-02T03:48:13;27.13;;;13.43;;
77520;SDS011;66633;47.628;19.158;2024-03-02T03:50:39;25.63;;;13.77;;
77520;SDS011;66633;47.628;19.158;2024-03-02T03:53:04;25.75;;;13.95;;
77520;SDS011;66633;47.628;19.158;2024-03-02T03:55:30;29.83;;;15.67;;
77520;SDS011;66633;47.628;19.158;2024-03-02T03:57:55;26.30;;;13.95;;
77520;SDS011;66633;47.628;19.158;2024-03-02T04:00:20;29.73;;;15.30;;
77520;SDS011;66633;47.628;19.158;2024-03-02T04:02:45;25.47;;;13.87;;
77520;SDS011;66633;47.628;19.158;2024-03-02T04:05:10;29.47;;;15.60;;
77520;SDS011;66633;47.628;19.158;2024-03-02T04:07:38;32.20;;;16.00;;
77520;SDS011;66633;47.628;19.158;2024-03-02T04:10:08;29.35;;;17.05;;
77520;SDS011;66633;47.628;19.158;2024-03-02T04:12:34;29.73;;;16.27;;
77520;SDS011;66633;47.628;19.158;2024-03-02T04:15:01;32.03;;;17.05;;
77520;SDS011;66633;47.628;19.158;2024-03-02T04:17:27;35.60;;;18.25;;
77520;SDS011;66633;47.628;19.158;2024-03-02T04:19:52;30.55;;;17.55;;
77520;SDS011;66633;47.628;19.158;2024-03-02T04:22:17;35.45;;;17.38;;
77520;SDS011;66633;47.628;19.158;2024-03-02T04:24:43;32.77;;;17.07;;
77520;SDS011;66633;47.628;19.158;2024-03-02T04:27:08;33.40;;;17.75;;
77520;SDS011;66633;47.628;19.158;2024-03-02T04:29:33;30.00;;;16.90;;
77520;SDS011;66633;47.628;19.158;2024-03-02T04:31:58;29.23;;;16.20;;
77520;SDS011;66633;47.628;19.158;2024-03-02T04:34:23;32.47;;;16.47;;
77520;SDS011;66633;47.628;19.158;2024-03-02T04:36:49;35.80;;;18.27;;
77520;SDS011;66633;47.628;19.158;2024-03-02T04:39:15;35.80;;;17.90;;
77520;SDS011;66633;47.628;19.158;2024-03-02T04:41:40;34.28;;;18.50;;
77520;SDS011;66633;47.628;19.158;2024-03-02T04:44:05;36.23;;;17.77;;
77520;SDS011;66633;47.628;19.158;2024-03-02T04:46:33;36.20;;;19.13;;
77520;SDS011;66633;47.628;19.158;2024-03-02T04:48:58;32.30;;;18.02;;
77520;SDS011;66633;47.628;19.158;2024-03-02T04:51:23;29.70;;;16.30;;
77520;SDS011;66633;47.628;19.158;2024-03-02T04:53:48;37.13;;;18.77;;
77520;SDS011;66633;47.628;19.158;2024-03-02T04:56:13;36.57;;;18.37;;
77520;SDS011;66633;47.628;19.158;2024-03-02T04:58:51;33.60;;;19.55;;
77520;SDS011;66633;47.628;19.158;2024-03-02T05:01:16;31.33;;;17.53;;
77520;SDS011;66633;47.628;19.158;2024-03-02T05:03:42;32.83;;;18.27;;
77520;SDS011;66633;47.628;19.158;2024-03-02T05:06:08;32.83;;;17.08;;
77520;SDS011;66633;47.628;19.158;2024-03-02T05:08:33;30.90;;;16.83;;
77520;SDS011;66633;47.628;19.158;2024-03-02T05:10:59;31.50;;;16.90;;
77520;SDS011;66633;47.628;19.158;2024-03-02T05:13:44;33.38;;;16.20;;
77520;SDS011;66633;47.628;19.158;2024-03-02T05:16:09;31.60;;;15.60;;
77520;SDS011;66633;47.628;19.158;2024-03-02T05:18:35;27.77;;;15.30;;
77520;SDS011;66633;47.628;19.158;2024-03-02T05:21:03;32.35;;;16.95;;
77520;SDS011;66633;47.628;19.158;2024-03-02T05:23:28;27.63;;;15.43;;
77520;SDS011;66633;47.628;19.158;2024-03-02T05:25:54;28.75;;;14.45;;
77520;SDS011;66633;47.628;19.158;2024-03-02T05:28:19;25.63;;;14.52;;
77520;SDS011;66633;47.628;19.158;2024-03-02T05:30:44;28.47;;;14.80;;
77520;SDS011;66633;47.628;19.158;2024-03-02T05:33:09;28.87;;;15.23;;
77520;SDS011;66633;47.628;19.158;2024-03-02T05:35:34;25.90;;;14.13;;
77520;SDS011;66633;47.628;19.158;2024-03-02T05:38:00;32.23;;;15.23;;
77520;SDS011;66633;47.628;19.158;2024-03-02T05:40:25;31.60;;;15.50;;
77520;SDS011;66633;47.628;19.158;2024-03-02T05:42:50;31.33;;;16.60;;
77520;SDS011;66633;47.628;19.158;2024-03-02T05:45:15;34.20;;;18.43;;
77520;SDS011;66633;47.628;19.158;2024-03-02T05:47:41;41.60;;;20.65;;
77520;SDS011;66633;47.628;19.158;2024-03-02T05:50:07;32.87;;;17.60;;
77520;SDS011;66633;47.628;19.158;2024-03-02T05:52:32;36.97;;;17.48;;
77520;SDS011;66633;47.628;19.158;2024-03-02T05:54:57;37.07;;;18.23;;
77520;SDS011;66633;47.628;19.158;2024-03-02T05:57:22;38.83;;;20.52;;
77520;SDS011;66633;47.628;19.158;2024-03-02T06:00:10;40.58;;;19.92;;
77520;SDS011;66633;47.628;19.158;2024-03-02T06:02:38;37.63;;;20.38;;
77520;SDS011;66633;47.628;19.158;2024-03-02T06:05:04;37.60;;;18.90;;
77520;SDS011;66633;47.628;19.158;2024-03-02T06:07:29;37.08;;;19.38;;
77520;SDS011;66633;47.628;19.158;2024-03-02T06:09:55;35.17;;;18.37;;
77520;SDS011;66633;47.628;19.158;2024-03-02T06:12:20;39.23;;;20.77;;
77520;SDS011;66633;47.628;19.158;2024-03-02T06:14:45;40.23;;;21.07;;
77520;SDS011;66633;47.628;19.158;2024-03-02T06:17:10;38.88;;;20.35;;
77520;SDS011;66633;47.628;19.158;2024-03-02T06:19:35;38.00;;;20.33;;
77520;SDS011;66633;47.628;19.158;2024-03-02T06:22:01;36.87;;;20.20;;
77520;SDS011;66633;47.628;19.158;2024-03-02T06:24:26;32.73;;;17.93;;
77520;SDS011;66633;47.628;19.158;2024-03-02T06:26:51;35.67;;;20.37;;
77520;SDS011;66633;47.628;19.158;2024-03-02T06:29:17;33.75;;;18.60;;
77520;SDS011;66633;47.628;19.158;2024-03-02T06:31:42;35.50;;;18.27;;
77520;SDS011;66633;47.628;19.158;2024-03-02T06:34:07;36.33;;;19.23;;
77520;SDS011;66633;47.628;19.158;2024-03-02T06:36:33;38.88;;;20.17;;
77520;SDS011;66633;47.628;19.158;2024-03-02T06:38:58;32.70;;;18.40;;
77520;SDS011;66633;47.628;19.158;2024-03-02T06:41:24;37.50;;;19.10;;
77520;SDS011;66633;47.628;19.158;2024-03-02T06:43:49;38.47;;;20.38;;
77520;SDS011;66633;47.628;19.158;2024-03-02T06:46:14;35.80;;;18.85;;
77520;SDS011;66633;47.628;19.158;2024-03-02T06:48:40;38.72;;;20.27;;
77520;SDS011;66633;47.628;19.158;2024-03-02T06:51:05;36.35;;;19.67;;
77520;SDS011;66633;47.628;19.158;2024-03-02T06:53:30;34.73;;;18.97;;
77520;SDS011;66633;47.628;19.158;2024-03-02T06:55:56;37.88;;;19.63;;
77520;SDS011;66633;47.628;19.158;2024-03-02T06:58:21;38.63;;;19.33;;
77520;SDS011;66633;47.628;19.158;2024-03-02T07:00:47;37.70;;;18.37;;
77520;SDS011;66633;47.628;19.158;2024-03-02T07:03:13;38.55;;;20.50;;
77520;SDS011;66633;47.628;19.158;2024-03-02T07:05:39;38.87;;;21.10;;
77520;SDS011;66633;47.628;19.158;2024-03-02T07:08:04;38.72;;;20.58;;
77520;SDS011;66633;47.628;19.158;2024-03-02T07:10:31;34.65;;;19.55;;
77520;SDS011;66633;47.628;19.158;2024-03-02T07:12:56;31.97;;;17.97;;
77520;SDS011;66633;47.628;19.158;2024-03-02T07:15:21;39.37;;;22.23;;
77520;SDS011;66633;47.628;19.158;2024-03-02T07:17:52;35.38;;;19.92;;
77520;SDS011;66633;47.628;19.158;2024-03-02T07:20:17;37.37;;;21.17;;
77520;SDS011;66633;47.628;19.158;2024-03-02T07:22:42;38.60;;;21.37;;
77520;SDS011;66633;47.628;19.158;2024-03-02T07:25:08;36.67;;;20.23;;
77520;SDS011;66633;47.628;19.158;2024-03-02T07:27:33;35.38;;;20.10;;
77520;SDS011;66633;47.628;19.158;2024-03-02T07:30:01;35.15;;;19.00;;
77520;SDS011;66633;47.628;19.158;2024-03-02T07:32:26;36.78;;;21.92;;
77520;SDS011;66633;47.628;19.158;2024-03-02T07:34:52;39.67;;;22.60;;
77520;SDS011;66633;47.628;19.158;2024-03-02T07:37:17;35.27;;;20.17;;
77520;SDS011;66633;47.628;19.158;2024-03-02T07:39:43;36.40;;;20.05;;
77520;SDS011;66633;47.628;19.158;2024-03-02T07:42:09;36.85;;;19.35;;
77520;SDS011;66633;47.628;19.158;2024-03-02T07:44:34;37.87;;;20.40;;
77520;SDS011;66633;47.628;19.158;2024-03-02T07:47:00;36.13;;;20.65;;
77520;SDS011;66633;47.628;19.158;2024-03-02T07:49:25;40.50;;;23.27;;
77520;SDS011;66633;47.628;19.158;2024-03-02T07:51:50;37.20;;;21.50;;
77520;SDS011;66633;47.628;19.158;2024-03-02T07:54:15;36.17;;;20.17;;
77520;SDS011;66633;47.628;19.158;2024-03-02T07:56:41;37.43;;;20.10;;
77520;SDS011;66633;47.628;19.158;2024-03-02T07:59:06;34.53;;;17.97;;
77520;SDS011;66633;47.628;19.158;2024-03-02T08:01:32;33.97;;;19.60;;
77520;SDS011;66633;47.628;19.158;2024-03-02T08:03:58;37.50;;;20.20;;
77520;SDS011;66633;47.628;19.158;2024-03-02T08:06:24;34.85;;;19.17;;
77520;SDS011;66633;47.628;19.158;2024-03-02T08:08:52;35.35;;;20.33;;
77520;SDS011;66633;47.628;19.158;2024-03-02T08:11:17;40.00;;;21.98;;
77520;SDS011;66633;47.628;19.158;2024-03-02T08:13:43;41.60;;;22.37;;
77520;SDS011;66633;47.628;19.158;2024-03-02T08:16:08;40.88;;;22.27;;
77520;SDS011;66633;47.628;19.158;2024-03-02T08:18:34;37.28;;;20.17;;
77520;SDS011;66633;47.628;19.158;2024-03-02T08:20:59;42.50;;;22.58;;
77520;SDS011;66633;47.628;19.158;2024-03-02T08:23:25;35.38;;;19.92;;
77520;SDS011;66633;47.628;19.158;2024-03-02T08:25:50;34.17;;;18.67;;
77520;SDS011;66633;47.628;19.158;2024-03-02T08:28:15;36.70;;;19.95;;
77520;SDS011;66633;47.628;19.158;2024-03-02T08:30:41;37.00;;;20.58;;
77520;SDS011;66633;47.628;19.158;2024-03-02T08:33:06;35.13;;;19.77;;
77520;SDS011;66633;47.628;19.158;2024-03-02T08:35:31;40.85;;;20.50;;
77520;SDS011;66633;47.628;19.158;2024-03-02T08:38:01;39.72;;;20.95;;
77520;SDS011;66633;47.628;19.158;2024-03-02T08:40:27;36.05;;;20.95;;
77520;SDS011;66633;47.628;19.158;2024-03-02T08:42:52;37.80;;;21.27;;
77520;SDS011;66633;47.628;19.158;2024-03-02T08:45:17;36.13;;;19.80;;
77520;SDS011;66633;47.628;19.158;2024-03-02T08:47:45;37.50;;;20.48;;
77520;SDS011;66633;47.628;19.158;2024-03-02T08:50:10;37.50;;;21.92;;
77520;SDS011;66633;47.628;19.158;2024-03-02T08:52:36;38.60;;;21.80;;
77520;SDS011;66633;47.628;19.158;2024-03-02T08:55:01;34.77;;;20.03;;
77520;SDS011;66633;47.628;19.158;2024-03-02T08:57:26;39.23;;;22.07;;
77520;SDS011;66633;47.628;19.158;2024-03-02T08:59:51;38.63;;;21.10;;
77520;SDS011;66633;47.628;19.158;2024-03-02T09:02:16;42.33;;;20.80;;
77520;SDS011;66633;47.628;19.158;2024-03-02T09:04:42;33.63;;;19.03;;
77520;SDS011;66633;47.628;19.158;2024-03-02T09:07:07;39.30;;;23.15;;
77520;SDS011;66633;47.628;19.158;2024-03-02T09:09:32;34.45;;;20.60;;
77520;SDS011;66633;47.628;19.158;2024-03-02T09:11:58;34.60;;;18.98;;
77520;SDS011;66633;47.628;19.158;2024-03-02T09:14:23;40.57;;;23.63;;
77520;SDS011;66633;47.628;19.158;2024-03-02T09:16:48;42.30;;;24.33;;
77520;SDS011;66633;47.628;19.158;2024-03-02T09:19:14;48.00;;;28.27;;
77520;SDS011;66633;47.628;19.158;2024-03-02T09:21:39;41.60;;;24.07;;
77520;SDS011;66633;47.628;19.158;2024-03-02T09:24:04;35.47;;;20.63;;
77520;SDS011;66633;47.628;19.158;2024-03-02T09:26:31;35.40;;;20.98;;
77520;SDS011;66633;47.628;19.158;2024-03-02T09:28:56;33.20;;;21.02;;
77520;SDS011;66633;47.628;19.158;2024-03-02T09:31:22;33.83;;;20.60;;
77520;SDS011;66633;47.628;19.158;2024-03-02T09:33:47;31.77;;;19.43;;
77520;SDS011;66633;47.628;19.158;2024-03-02T09:36:19;31.07;;;17.17;;
77520;SDS011;66633;47.628;19.158;2024-03-02T09:38:44;33.13;;;19.50;;
77520;SDS011;66633;47.628;19.158;2024-03-02T09:41:10;34.17;;;18.55;;
77520;SDS011;66633;47.628;19.158;2024-03-02T09:43:35;28.30;;;16.90;;
77520;SDS011;66633;47.628;19.158;2024-03-02T09:46:01;26.08;;;15.30;;
77520;SDS011;66633;47.628;19.158;2024-03-02T09:48:26;22.60;;;13.95;;
77520;SDS011;66633;47.628;19.158;2024-03-02T09:50:52;25.92;;;14.82;;
77520;SDS011;66633;47.628;19.158;2024-03-02T09:53:17;22.13;;;13.73;;
77520;SDS011;66633;47.628;19.158;2024-03-02T09:55:45;23.05;;;13.52;;
77520;SDS011;66633;47.628;19.158;2024-03-02T09:58:11;19.40;;;12.38;;
77520;SDS011;66633;47.628;19.158;2024-03-02T10:00:37;21.98;;;13.25;;
77520;SDS011;66633;47.628;19.158;2024-03-02T10:03:02;19.30;;;11.32;;
77520;SDS011;66633;47.628;19.158;2024-03-02T10:05:27;18.48;;;11.65;;
77520;SDS011;66633;47.628;19.158;2024-03-02T10:08:00;20.02;;;11.82;;
77520;SDS011;66633;47.628;19.158;2024-03-02T10:10:26;18.85;;;12.02;;
77520;SDS011;66633;47.628;19.158;2024-03-02T10:13:08;19.08;;;11.88;;
77520;SDS011;66633;47.628;19.158;2024-03-02T10:15:34;17.55;;;10.20;;
77520;SDS011;66633;47.628;19.158;2024-03-02T10:17:59;19.67;;;11.55;;
77520;SDS011;66633;47.628;19.158;2024-03-02T10:20:25;20.85;;;11.68;;
77520;SDS011;66633;47.628;19.158;2024-03-02T10:22:51;17.92;;;10.82;;
77520;SDS011;66633;47.628;19.158;2024-03-02T10:25:29;17.73;;;10.98;;
77520;SDS011;66633;47.628;19.158;2024-03-02T10:27:57;17.73;;;10.38;;
77520;SDS011;66633;47.628;19.158;2024-03-02T10:30:22;16.77;;;11.10;;
77520;SDS011;66633;47.628;19.158;2024-03-02T10:32:48;17.77;;;11.03;;
77520;SDS011;66633;47.628;19.158;2024-03-02T10:35:14;15.15;;;9.52;;
77520;SDS011;66633;47.628;19.158;2024-03-02T10:37:39;15.40;;;9.30;;
77520;SDS011;66633;47.628;19.158;2024-03-02T10:40:05;16.85;;;10.35;;
77520;SDS011;66633;47.628;19.158;2024-03-02T10:42:31;15.52;;;9.95;;
77520;SDS011;66633;47.628;19.158;2024-03-02T10:44:56;17.08;;;11.35;;
77520;SDS011;66633;47.628;19.158;2024-03-02T10:47:22;19.50;;;12.38;;
77520;SDS011;66633;47.628;19.158;2024-03-02T10:49:48;18.90;;;12.15;;
77520;SDS011;66633;47.628;19.158;2024-03-02T10:52:16;18.42;;;11.40;;
77520;SDS011;66633;47.628;19.158;2024-03-02T10:54:42;18.52;;;12.25;;
77520;SDS011;66633;47.628;19.158;2024-03-02T10:57:08;17.73;;;11.25;;
77520;SDS011;66633;47.628;19.158;2024-03-02T10:59:35;16.70;;;9.85;;
77520;SDS011;66633;47.628;19.158;2024-03-02T11:02:02;16.10;;;10.38;;
77520;SDS011;66633;47.628;19.158;2024-03-02T11:04:28;16.63;;;10.20;;
77520;SDS011;66633;47.628;19.158;2024-03-02T11:06:55;17.85;;;10.13;;
77520;SDS011;66633;47.628;19.158;2024-03-02T11:09:22;18.50;;;11.18;;
77520;SDS011;66633;47.628;19.158;2024-03-02T11:12:03;16.98;;;10.13;;
77520;SDS011;66633;47.628;19.158;2024-03-02T11:14:31;18.45;;;10.73;;
77520;SDS011;66633;47.628;19.158;2024-03-02T11:17:00;16.73;;;9.88;;
77520;SDS011;66633;47.628;19.158;2024-03-02T11:19:25;17.30;;;11.10;;
77520;SDS011;66633;47.628;19.158;2024-03-02T11:21:52;17.33;;;10.27;;
77520;SDS011;66633;47.628;19.158;2024-03-02T11:26:46;17.30;;;10.63;;
77520;SDS011;66633;47.628;19.158;2024-03-02T11:29:29;23.25;;;14.02;;
77520;SDS011;66633;47.628;19.158;2024-03-02T11:31:59;22.92;;;14.02;;
77520;SDS011;66633;47.628;19.158;2024-03-02T11:36:56;22.25;;;13.07;;
77520;SDS011;66633;47.628;19.158;2024-03-02T11:39:21;21.23;;;13.32;;
77520;SDS011;66633;47.628;19.158;2024-03-02T11:41:46;21.52;;;13.77;;
77520;SDS011;66633;47.628;19.158;2024-03-02T11:44:11;22.03;;;13.47;;
77520;SDS011;66633;47.628;19.158;2024-03-02T11:46:39;21.30;;;12.70;;
77520;SDS011;66633;47.628;19.158;2024-03-02T11:49:04;21.55;;;12.10;;
77520;SDS011;66633;47.628;19.158;2024-03-02T11:51:29;21.90;;;13.73;;
77520;SDS011;66633;47.628;19.158;2024-03-02T11:53:56;21.23;;;13.23;;
77520;SDS011;66633;47.628;19.158;2024-03-02T11:56:23;19.13;;;12.63;;
77520;SDS011;66633;47.628;19.158;2024-03-02T11:58:53;18.05;;;10.68;;
77520;SDS011;66633;47.628;19.158;2024-03-02T12:01:19;19.70;;;12.20;;
77520;SDS011;66633;47.628;19.158;2024-03-02T12:03:44;19.30;;;12.38;;
77520;SDS011;66633;47.628;19.158;2024-03-02T12:06:10;24.77;;;16.25;;
77520;SDS011;66633;47.628;19.158;2024-03-02T12:08:36;20.30;;;13.38;;
77520;SDS011;66633;47.628;19.158;2024-03-02T12:11:02;21.35;;;13.52;;
77520;SDS011;66633;47.628;19.158;2024-03-02T12:13:27;32.38;;;21.70;;
77520;SDS011;66633;47.628;19.158;2024-03-02T12:15:53;34.30;;;21.60;;
77520;SDS011;66633;47.628;19.158;2024-03-02T12:18:19;30.30;;;20.42;;
77520;SDS011;66633;47.628;19.158;2024-03-02T12:20:44;25.87;;;17.50;;
77520;SDS011;66633;47.628;19.158;2024-03-02T12:23:09;23.50;;;16.63;;
77520;SDS011;66633;47.628;19.158;2024-03-02T12:25:35;19.15;;;14.00;;
77520;SDS011;66633;47.628;19.158;2024-03-02T12:28:01;18.75;;;12.38;;
77520;SDS011;66633;47.628;19.158;2024-03-02T12:30:30;17.73;;;11.75;;
77520;SDS011;66633;47.628;19.158;2024-03-02T12:32:56;18.33;;;11.05;;
77520;SDS011;66633;47.628;19.158;2024-03-02T12:35:21;18.48;;;11.48;;
77520;SDS011;66633;47.628;19.158;2024-03-02T12:37:51;17.00;;;11.05;;
77520;SDS011;66633;47.628;19.158;2024-03-02T12:40:17;16.70;;;10.85;;
77520;SDS011;66633;47.628;19.158;2024-03-02T12:42:43;19.23;;;11.23;;
77520;SDS011;66633;47.628;19.158;2024-03-02T12:45:09;17.80;;;10.52;;
77520;SDS011;66633;47.628;19.158;2024-03-02T12:47:34;17.60;;;10.90;;
77520;SDS011;66633;47.628;19.158;2024-03-02T12:50:00;16.05;;;10.10;;
77520;SDS011;66633;47.628;19.158;2024-03-02T12:52:25;18.58;;;10.90;;
77520;SDS011;66633;47.628;19.158;2024-03-02T12:54:50;19.40;;;11.82;;
77520;SDS011;66633;47.628;19.158;2024-03-02T12:57:18;20.55;;;11.90;;
77520;SDS011;66633;47.628;19.158;2024-03-02T12:59:46;17.35;;;11.35;;
77520;SDS011;66633;47.628;19.158;2024-03-02T13:02:18;23.63;;;15.90;;
77520;SDS011;66633;47.628;19.158;2024-03-02T13:04:43;33.17;;;20.15;;
77520;SDS011;66633;47.628;19.158;2024-03-02T13:07:08;54.78;;;32.70;;
77520;SDS011;66633;47.628;19.158;2024-03-02T13:09:35;64.75;;;36.55;;
77520;SDS011;66633;47.628;19.158;2024-03-02T13:12:00;40.13;;;25.33;;
77520;SDS011;66633;47.628;19.158;2024-03-02T13:14:25;56.88;;;33.30;;
77520;SDS011;66633;47.628;19.158;2024-03-02T13:16:51;29.13;;;17.98;;
77520;SDS011;66633;47.628;19.158;2024-03-02T13:19:17;24.75;;;15.20;;
77520;SDS011;66633;47.628;19.158;2024-03-02T13:21:44;66.10;;;32.42;;
77520;SDS011;66633;47.628;19.158;2024-03-02T13:24:09;38.58;;;18.85;;
77520;SDS011;66633;47.628;19.158;2024-03-02T13:26:35;27.65;;;15.18;;
77520;SDS011;66633;47.628;19.158;2024-03-02T13:29:00;21.23;;;12.73;;
77520;SDS011;66633;47.628;19.158;2024-03-02T13:31:25;22.98;;;12.38;;
77520;SDS011;66633;47.628;19.158;2024-03-02T13:33:51;22.08;;;11.20;;
77520;SDS011;66633;47.628;19.158;2024-03-02T13:36:16;17.53;;;10.37;;
77520;SDS011;66633;47.628;19.158;2024-03-02T13:38:42;21.13;;;11.48;;
77520;SDS011;66633;47.628;19.158;2024-03-02T13:41:07;17.80;;;10.07;;
77520;SDS011;66633;47.628;19.158;2024-03-02T13:43:32;20.53;;;11.80;;
77520;SDS011;66633;47.628;19.158;2024-03-02T13:45:58;21.10;;;10.90;;
77520;SDS011;66633;47.628;19.158;2024-03-02T13:48:24;24.50;;;13.05;;
77520;SDS011;66633;47.628;19.158;2024-03-02T13:50:51;24.52;;;12.15;;
77520;SDS011;66633;47.628;19.158;2024-03-02T13:53:17;25.40;;;12.40;;
77520;SDS011;66633;47.628;19.158;2024-03-02T13:55:42;23.98;;;12.07;;
77520;SDS011;66633;47.628;19.158;2024-03-02T13:58:08;25.65;;;13.45;;
77520;SDS011;66633;47.628;19.158;2024-03-02T14:00:33;25.73;;;13.23;;
77520;SDS011;66633;47.628;19.158;2024-03-02T14:02:58;24.17;;;13.77;;
77520;SDS011;66633;47.628;19.158;2024-03-02T14:05:24;23.75;;;12.15;;
77520;SDS011;66633;47.628;19.158;2024-03-02T14:07:49;23.53;;;12.30;;
77520;SDS011;66633;47.628;19.158;2024-03-02T14:10:14;26.37;;;13.50;;
77520;SDS011;66633;47.628;19.158;2024-03-02T14:12:40;29.30;;;14.60;;